Time;durP1;ratioP1;P1;durP2;ratioP2;P2;SDS_P1;SDS_P2;PMS_P1;PMS_P2;Temp;Humidity;BMP_temperature;BMP_pressure;BME280_temperature;BME280_humidity;BME280_pressure;Samples;Min_cycle;Max_cycle;Signal;HPM_P1;HPM_P2
2024/04/11 00:01:15;;;;;;;0.93;0.90;;;16.20;51.20;16.70;99268.00;;;;5452713;26;20314;-59
2024/04/11 00:03:41;;;;;;;0.73;0.70;;;16.20;51.20;16.70;99260.00;;;;5459562;26;20240;-59
2024/04/11 00:06:10;;;;;;;0.60;0.60;;;16.20;51.20;16.70;99258.00;;;;5452771;26;20242;-59
2024/04/11 00:08:36;;;;;;;0.90;0.80;;;16.20;51.20;16.70;99258.00;;;;5451686;26;20359;-58
2024/04/11 00:11:04;;;;;;;0.60;0.60;;;16.30;51.30;16.70;99262.00;;;;5469345;26;20237;-59
2024/04/11 00:13:30;;;;;;;0.80;0.80;;;16.30;51.30;16.70;99260.00;;;;5489134;26;20285;-59
2024/04/11 00:16:04;;;;;;;0.60;0.60;;;16.20;51.20;16.70;99257.00;;;;5489387;26;20302;-59
2024/04/11 00:18:30;;;;;;;0.57;0.50;;;16.20;51.20;16.70;99256.00;;;;5488073;26;20233;-59
2024/04/11 00:20:59;;;;;;;0.67;0.67;;;16.20;51.20;16.70;99258.00;;;;5487700;26;20280;-59
2024/04/11 00:23:26;;;;;;;0.70;0.70;;;16.20;51.20;16.70;99257.00;;;;5488893;26;20296;-59
2024/04/11 00:25:57;;;;;;;0.80;0.80;;;16.20;51.20;16.70;99253.00;;;;5487701;26;20741;-59
2024/04/11 00:28:25;;;;;;;0.57;0.57;;;16.20;51.20;16.70;99262.00;;;;5488411;26;20233;-58
2024/04/11 00:30:53;;;;;;;0.70;0.70;;;16.20;51.20;16.70;99247.00;;;;5489121;26;20328;-59
2024/04/11 00:33:22;;;;;;;0.80;0.80;;;16.20;51.20;16.70;99252.00;;;;5487973;26;20304;-59
2024/04/11 00:35:52;;;;;;;0.63;0.63;;;16.20;51.20;16.70;99246.00;;;;5488642;26;20241;-59
2024/04/11 00:38:19;;;;;;;0.77;0.70;;;16.20;51.20;16.70;99251.00;;;;5475586;26;20246;-59
2024/04/11 00:40:56;;;;;;;0.70;0.70;;;16.20;51.20;16.70;99250.00;;;;5460166;26;20998;-59
2024/04/11 00:43:22;;;;;;;0.70;0.70;;;16.20;51.20;16.70;99247.00;;;;5452587;26;20237;-59
2024/04/11 00:45:51;;;;;;;0.80;0.80;;;16.20;51.20;16.70;99243.00;;;;5452560;26;20234;-59
2024/04/11 00:48:21;;;;;;;0.70;0.70;;;16.20;51.20;16.70;99239.00;;;;5451378;26;20840;-59
2024/04/11 00:50:53;;;;;;;0.80;0.80;;;16.20;51.30;16.60;99237.00;;;;5462142;26;20309;-58
2024/04/11 00:53:21;;;;;;;0.70;0.70;;;16.20;51.20;16.70;99236.00;;;;5452141;26;20360;-58
2024/04/11 00:55:50;;;;;;;0.73;0.70;;;16.20;51.30;16.60;99241.00;;;;5460373;26;20650;-59
2024/04/11 00:58:17;;;;;;;0.70;0.70;;;16.20;51.30;16.60;99241.00;;;;5451330;26;20622;-59
2024/04/11 01:00:46;;;;;;;0.77;0.77;;;16.20;51.30;16.60;99237.00;;;;5452124;26;20750;-58
2024/04/11 01:03:12;;;;;;;0.73;0.73;;;16.20;51.30;16.60;99247.00;;;;5451853;26;20375;-59
2024/04/11 01:05:43;;;;;;;0.80;0.80;;;16.10;51.30;16.60;99237.00;;;;5460539;26;20333;-59
2024/04/11 01:08:09;;;;;;;0.70;0.70;;;16.10;51.30;16.60;99239.00;;;;5451158;26;20336;-59
2024/04/11 01:10:39;;;;;;;0.60;0.60;;;16.20;51.30;16.60;99233.00;;;;5460439;26;20275;-59
2024/04/11 01:13:06;;;;;;;0.80;0.80;;;16.20;51.30;16.60;99236.00;;;;5474486;26;20279;-59
2024/04/11 01:15:37;;;;;;;0.63;0.63;;;16.20;51.30;16.60;99231.00;;;;5488435;26;20315;-58
2024/04/11 01:18:04;;;;;;;0.60;0.60;;;16.20;51.30;16.60;99232.00;;;;5487408;26;20229;-58
2024/04/11 01:20:32;;;;;;;0.60;0.60;;;16.20;51.30;16.60;99228.00;;;;5487295;26;20287;-58
2024/04/11 01:23:01;;;;;;;0.70;0.70;;;16.20;51.30;16.60;99230.00;;;;5466243;26;20667;-59
2024/04/11 01:25:30;;;;;;;0.80;0.80;;;16.20;51.30;16.60;99232.00;;;;5459404;26;20304;-59
2024/04/11 01:27:57;;;;;;;0.80;0.80;;;16.20;51.30;16.60;99229.00;;;;5450920;26;20621;-59
2024/04/11 01:30:25;;;;;;;0.80;0.80;;;16.20;51.30;16.60;99232.00;;;;5466927;26;20306;-58
2024/04/11 01:32:59;;;;;;;0.60;0.60;;;16.20;51.30;16.60;99229.00;;;;5451513;26;20241;-58
2024/04/11 01:35:32;;;;;;;0.70;0.70;;;16.10;51.30;16.60;99229.00;;;;5454116;26;20586;-58
2024/04/11 01:38:01;;;;;;;1.00;0.90;;;16.10;51.30;16.60;99220.00;;;;5472038;26;20229;-58
2024/04/11 01:40:34;;;;;;;0.70;0.70;;;16.10;51.30;16.60;99224.00;;;;5485618;26;20237;-58
2024/04/11 01:43:00;;;;;;;1.30;0.80;;;16.10;51.30;16.60;99224.00;;;;5458259;26;20233;-58
2024/04/11 01:45:31;;;;;;;0.70;0.70;;;16.10;51.30;16.60;99225.00;;;;5474323;26;20276;-58
2024/04/11 01:47:57;;;;;;;0.60;0.60;;;16.10;51.40;16.60;99225.00;;;;5450452;26;21018;-58
2024/04/11 01:50:26;;;;;;;0.90;0.90;;;16.10;51.40;16.60;99222.00;;;;5455929;26;20237;-58
2024/04/11 01:52:52;;;;;;;0.80;0.80;;;16.10;51.40;16.60;99223.00;;;;5466154;26;20290;-59
2024/04/11 01:55:23;;;;;;;0.70;0.70;;;16.10;51.40;16.60;99221.00;;;;5455915;26;20272;-58
2024/04/11 01:57:49;;;;;;;0.60;0.60;;;16.10;51.40;16.60;99224.00;;;;5453047;26;20282;-58
2024/04/11 02:00:18;;;;;;;0.73;0.73;;;16.10;51.40;16.60;99229.00;;;;5450922;26;20241;-58
2024/04/11 02:02:44;;;;;;;0.87;0.87;;;16.10;51.40;16.60;99229.00;;;;5452416;26;20301;-59
2024/04/11 02:05:14;;;;;;;0.77;0.70;;;16.10;51.40;16.60;99220.00;;;;5463451;26;20276;-58
2024/04/11 02:07:40;;;;;;;0.60;0.60;;;16.10;51.40;16.60;99225.00;;;;5450800;26;20326;-58
2024/04/11 02:10:10;;;;;;;0.70;0.70;;;16.10;51.40;16.60;99229.00;;;;5452964;26;20286;-58
2024/04/11 02:12:39;;;;;;;1.30;0.77;;;16.10;51.40;16.60;99224.00;;;;5456831;26;20234;-58
2024/04/11 02:15:10;;;;;;;0.60;0.60;;;16.10;51.40;16.60;99230.00;;;;5450885;26;20699;-58
2024/04/11 02:17:36;;;;;;;0.80;0.80;;;16.10;51.40;16.50;99227.00;;;;5450359;26;20273;-58
2024/04/11 02:20:10;;;;;;;0.80;0.80;;;16.10;51.40;16.50;99224.00;;;;5460813;26;20337;-58
2024/04/11 02:22:37;;;;;;;0.70;0.70;;;16.10;51.40;16.50;99226.00;;;;5457176;26;20277;-58
2024/04/11 02:25:07;;;;;;;0.70;0.70;;;16.10;51.40;16.50;99225.00;;;;5473232;26;20268;-58
2024/04/11 02:27:34;;;;;;;0.97;0.80;;;16.10;51.40;16.50;99229.00;;;;5460978;26;20294;-58
2024/04/11 02:30:09;;;;;;;0.80;0.80;;;16.00;51.30;16.50;99231.00;;;;5468753;26;20347;-58
2024/04/11 02:32:40;;;;;;;0.80;0.80;;;16.00;51.30;16.50;99230.00;;;;5454312;26;20234;-58
2024/04/11 02:35:11;;;;;;;0.90;0.90;;;16.00;51.30;16.50;99239.00;;;;5462393;26;20298;-58
2024/04/11 02:37:38;;;;;;;0.70;0.70;;;16.00;51.30;16.50;99238.00;;;;5453799;26;20234;-58
2024/04/11 02:40:09;;;;;;;0.97;0.87;;;16.10;51.40;16.50;99240.00;;;;5473846;26;20245;-59
2024/04/11 02:42:37;;;;;;;0.53;0.53;;;16.00;51.30;16.50;99241.00;;;;5461006;26;20237;-58
2024/04/11 02:45:14;;;;;;;0.80;0.77;;;16.00;51.30;16.50;99237.00;;;;5475512;26;20244;-58
2024/04/11 02:47:41;;;;;;;0.80;0.80;;;16.00;51.40;16.50;99244.00;;;;5489758;26;20229;-58
2024/04/11 02:50:15;;;;;;;0.80;0.80;;;16.00;51.30;16.50;99231.00;;;;5477377;26;20346;-59
2024/04/11 02:52:41;;;;;;;0.80;0.80;;;16.00;51.30;16.50;99237.00;;;;5469160;26;20249;-59
2024/04/11 02:55:10;;;;;;;0.80;0.80;;;16.00;51.40;16.50;99241.00;;;;5471943;26;20586;-59
2024/04/11 02:57:37;;;;;;;0.70;0.70;;;16.00;51.30;16.50;99232.00;;;;5489808;26;20233;-58
2024/04/11 03:00:09;;;;;;;0.80;0.80;;;16.00;51.30;16.50;99238.00;;;;5490000;26;20337;-59
2024/04/11 03:02:37;;;;;;;0.77;0.77;;;16.00;51.40;16.50;99233.00;;;;5488883;26;20776;-59
2024/04/11 03:05:07;;;;;;;0.80;0.80;;;16.00;51.40;16.50;99236.00;;;;5490109;26;20241;-59
2024/04/11 03:07:34;;;;;;;0.80;0.80;;;16.00;51.40;16.50;99228.00;;;;5490032;26;20268;-59
2024/04/11 03:10:03;;;;;;;0.80;0.80;;;16.00;51.30;16.40;99238.00;;;;5487659;26;20245;-59
2024/04/11 03:12:29;;;;;;;0.97;0.87;;;16.00;51.40;16.40;99229.00;;;;5477746;26;20277;-59
2024/04/11 03:14:59;;;;;;;0.90;0.90;;;16.00;51.40;16.40;99229.00;;;;5453713;26;20238;-59
2024/04/11 03:17:27;;;;;;;0.70;0.70;;;15.90;51.40;16.40;99229.00;;;;5453273;26;20273;-59
2024/04/11 03:19:56;;;;;;;0.60;0.60;;;16.00;51.40;16.40;99232.00;;;;5477002;26;20300;-58
2024/04/11 03:22:22;;;;;;;0.83;0.83;;;16.00;51.40;16.40;99224.00;;;;5479481;26;20355;-58
2024/04/11 03:24:51;;;;;;;0.80;0.80;;;16.00;51.40;16.40;99228.00;;;;5455192;26;20246;-58
2024/04/11 03:27:17;;;;;;;0.83;0.83;;;16.00;51.40;16.40;99234.00;;;;5465108;26;20348;-59
2024/04/11 03:29:45;;;;;;;0.77;0.77;;;15.90;51.40;16.40;99235.00;;;;5452627;26;20242;-59
2024/04/11 03:32:11;;;;;;;0.80;0.80;;;15.90;52.10;16.40;99239.00;;;;5468337;26;20711;-62
2024/04/11 03:34:43;;;;;;;0.80;0.80;;;16.00;51.40;16.40;99246.00;;;;5456144;26;20289;-59
2024/04/11 03:37:09;;;;;;;0.70;0.70;;;15.90;51.40;16.40;99247.00;;;;5474262;26;20358;-58
2024/04/11 03:39:38;;;;;;;0.80;0.80;;;15.90;51.40;16.40;99242.00;;;;5488705;26;20233;-59
2024/04/11 03:42:08;;;;;;;0.70;0.70;;;15.90;51.40;16.40;99243.00;;;;5467464;26;20790;-59
2024/04/11 03:44:39;;;;;;;1.00;1.00;;;16.00;51.40;16.40;99248.00;;;;5453324;26;20280;-59
2024/04/11 03:47:08;;;;;;;0.73;0.73;;;15.90;51.40;16.40;99251.00;;;;5452943;26;20617;-59
2024/04/11 03:49:39;;;;;;;0.70;0.70;;;15.90;51.40;16.40;99244.00;;;;5462987;26;20289;-58
2024/04/11 03:52:07;;;;;;;0.70;0.70;;;15.90;51.40;16.40;99243.00;;;;5454113;26;20234;-59
2024/04/11 03:54:37;;;;;;;0.80;0.80;;;15.90;51.50;16.40;99246.00;;;;5453227;26;20277;-59
2024/04/11 03:57:07;;;;;;;0.80;0.73;;;15.90;51.40;16.40;99247.00;;;;5464597;26;20801;-58
2024/04/11 03:59:36;;;;;;;0.60;0.60;;;15.90;51.40;16.40;99242.00;;;;5452268;26;20281;-58
2024/04/11 04:02:02;;;;;;;0.67;0.67;;;15.90;51.50;16.40;99247.00;;;;5452766;26;20238;-58
2024/04/11 04:04:32;;;;;;;0.70;0.70;;;15.90;51.40;16.40;99250.00;;;;5461164;26;20306;-58
2024/04/11 04:06:58;;;;;;;0.70;0.70;;;15.90;51.40;16.40;99249.00;;;;5467929;26;20267;-59
2024/04/11 04:09:29;;;;;;;0.70;0.70;;;15.90;51.40;16.30;99250.00;;;;5452174;26;20242;-59
2024/04/11 04:11:55;;;;;;;0.80;0.80;;;15.90;51.40;16.30;99247.00;;;;5465086;26;20682;-58
2024/04/11 04:14:24;;;;;;;0.70;0.70;;;15.90;51.40;16.30;99254.00;;;;5452978;26;20268;-58
2024/04/11 04:16:50;;;;;;;0.93;0.80;;;15.90;51.40;16.30;99253.00;;;;5452739;26;20238;-58
2024/04/11 04:19:19;;;;;;;0.87;0.77;;;15.90;51.40;16.30;99254.00;;;;5453164;26;20230;-58
2024/04/11 04:21:45;;;;;;;0.67;0.67;;;15.80;51.30;16.30;99253.00;;;;5459281;26;20297;-58
2024/04/11 04:24:14;;;;;;;0.80;0.80;;;15.80;51.30;16.30;99254.00;;;;5452754;26;20828;-58
2024/04/11 04:26:42;;;;;;;0.80;0.80;;;15.90;51.40;16.30;99251.00;;;;5465124;26;20711;-59
2024/04/11 04:29:11;;;;;;;0.60;0.60;;;15.80;51.30;16.30;99252.00;;;;5451706;26;20246;-58
2024/04/11 04:31:37;;;;;;;0.70;0.70;;;15.80;51.30;16.30;99240.00;;;;5452631;26;20312;-58
2024/04/11 04:34:09;;;;;;;1.10;0.97;;;15.80;51.40;16.30;99246.00;;;;5452434;26;20234;-58
2024/04/11 04:36:40;;;;;;;0.77;0.70;;;15.80;51.30;16.30;99239.00;;;;5465657;26;20271;-58
2024/04/11 04:39:13;;;;;;;1.10;1.00;;;15.80;51.30;16.30;99244.00;;;;5451830;26;20285;-58
2024/04/11 04:41:43;;;;;;;0.80;0.80;;;15.80;51.40;16.30;99245.00;;;;5464709;26;20372;-58
2024/04/11 04:44:12;;;;;;;0.80;0.80;;;15.80;51.30;16.30;99247.00;;;;5452633;26;20290;-58
2024/04/11 04:46:39;;;;;;;0.73;0.73;;;15.80;51.40;16.30;99247.00;;;;5467329;26;20359;-58
2024/04/11 04:49:09;;;;;;;0.60;0.60;;;15.80;51.40;16.30;99252.00;;;;5462793;26;20335;-58
2024/04/11 04:51:36;;;;;;;0.70;0.70;;;15.80;51.30;16.30;99255.00;;;;5452577;26;20239;-58
2024/04/11 04:54:05;;;;;;;0.70;0.70;;;15.80;51.40;16.30;99253.00;;;;5455823;26;20366;-58
2024/04/11 04:56:32;;;;;;;0.83;0.83;;;15.80;51.40;16.30;99254.00;;;;5475491;26;20293;-58
2024/04/11 04:59:04;;;;;;;0.53;0.53;;;15.80;51.30;16.30;99252.00;;;;5450944;26;20276;-58
2024/04/11 05:01:33;;;;;;;0.70;0.70;;;15.80;51.30;16.30;99258.00;;;;5452046;26;20774;-58
2024/04/11 05:04:01;;;;;;;1.23;1.03;;;15.80;51.40;16.30;99256.00;;;;5453467;26;20246;-58
2024/04/11 05:06:29;;;;;;;0.73;0.73;;;15.80;51.40;16.30;99261.00;;;;5488894;26;20369;-58
2024/04/11 05:08:58;;;;;;;0.73;0.73;;;15.80;51.40;16.30;99259.00;;;;5486097;26;20233;-58
2024/04/11 05:11:31;;;;;;;0.70;0.70;;;15.80;51.40;16.30;99266.00;;;;5465348;26;20309;-58
2024/04/11 05:14:07;;;;;;;0.73;0.73;;;15.80;51.30;16.30;99266.00;;;;5452143;26;20238;-59
2024/04/11 05:16:36;;;;;;;0.80;0.80;;;15.80;51.30;16.30;99266.00;;;;5452066;26;20363;-58
2024/04/11 05:19:07;;;;;;;0.70;0.70;;;15.80;51.40;16.30;99266.00;;;;5451081;26;20238;-58
2024/04/11 05:21:33;;;;;;;0.70;0.70;;;15.80;51.30;16.20;99270.00;;;;5451678;26;20607;-58
2024/04/11 05:24:03;;;;;;;2.10;1.00;;;15.80;51.30;16.30;99276.00;;;;5451953;26;20246;-58
2024/04/11 05:26:30;;;;;;;0.80;0.80;;;15.80;51.30;16.30;99280.00;;;;5465295;26;20450;-58
2024/04/11 05:28:58;;;;;;;0.70;0.70;;;15.80;51.30;16.30;99283.00;;;;5450868;26;20249;-58
2024/04/11 05:31:25;;;;;;;0.90;0.90;;;15.80;51.30;16.30;99289.00;;;;5451681;26;20250;-58
2024/04/11 05:34:06;;;;;;;0.83;0.83;;;15.80;51.30;16.30;99283.00;;;;5463687;26;20292;-58
2024/04/11 05:36:32;;;;;;;0.67;0.67;;;15.80;51.30;16.30;99287.00;;;;5487902;26;20343;-59
2024/04/11 05:39:01;;;;;;;0.67;0.67;;;15.80;51.30;16.30;99287.00;;;;5470178;26;20242;-58
2024/04/11 05:41:27;;;;;;;0.90;0.90;;;15.80;51.30;16.30;99289.00;;;;5465228;26;20292;-58
2024/04/11 05:43:56;;;;;;;0.80;0.80;;;15.90;51.40;16.30;99292.00;;;;5451515;26;20292;-59
2024/04/11 05:46:25;;;;;;;0.90;0.90;;;15.80;51.30;16.30;99286.00;;;;5451279;26;20280;-58
2024/04/11 05:48:54;;;;;;;0.93;0.83;;;15.80;51.20;16.30;99292.00;;;;5450624;26;20234;-58
2024/04/11 05:51:23;;;;;;;0.87;0.87;;;15.90;51.30;16.30;99292.00;;;;5467222;26;20234;-58
2024/04/11 05:53:49;;;;;;;0.70;0.70;;;15.90;51.30;16.30;99291.00;;;;5451656;26;20290;-59
2024/04/11 05:56:19;;;;;;;0.80;0.80;;;15.90;51.30;16.30;99291.00;;;;5465293;26;20241;-59
2024/04/11 05:58:45;;;;;;;0.70;0.70;;;15.90;51.20;16.40;99291.00;;;;5449587;26;20234;-59
2024/04/11 06:01:16;;;;;;;0.60;0.60;;;15.90;51.20;16.40;99289.00;;;;5451179;26;20301;-58
2024/04/11 06:03:46;;;;;;;0.70;0.70;;;15.90;51.10;16.40;99296.00;;;;5451150;26;20281;-58
2024/04/11 06:06:19;;;;;;;0.83;0.80;;;15.90;51.10;16.40;99298.00;;;;5450827;26;20242;-59
2024/04/11 06:08:46;;;;;;;0.90;0.90;;;15.90;51.10;16.40;99300.00;;;;5450409;26;20234;-58
2024/04/11 06:11:17;;;;;;;0.70;0.70;;;16.00;51.00;16.40;99300.00;;;;5464761;26;20237;-59
2024/04/11 06:13:43;;;;;;;0.90;0.90;;;15.90;51.00;16.40;99304.00;;;;5451286;26;20857;-58
2024/04/11 06:16:12;;;;;;;0.80;0.80;;;16.00;51.00;16.40;99307.00;;;;5450780;26;20700;-58
2024/04/11 06:18:38;;;;;;;0.90;0.80;;;16.00;50.90;16.40;99313.00;;;;5450090;26;20285;-58
2024/04/11 06:21:11;;;;;;;0.77;0.77;;;16.00;50.90;16.50;99314.00;;;;5464615;26;20256;-58
2024/04/11 06:23:40;;;;;;;0.70;0.70;;;16.10;51.00;16.50;99313.00;;;;5451044;26;20280;-58
2024/04/11 06:26:14;;;;;;;0.70;0.70;;;16.00;50.70;16.50;99321.00;;;;5467650;26;20845;-59
2024/04/11 06:28:41;;;;;;;1.00;1.00;;;16.10;50.80;16.50;99325.00;;;;5459919;26;20237;-58
2024/04/11 06:31:10;;;;;;;0.97;0.90;;;16.10;50.70;16.50;99319.00;;;;5450394;26;20998;-58
2024/04/11 06:33:40;;;;;;;0.77;0.77;;;16.10;50.60;16.60;99326.00;;;;5455049;26;20276;-58
2024/04/11 06:36:10;;;;;;;1.20;1.10;;;16.20;51.20;16.60;99323.00;;;;5454237;26;20282;-59
2024/04/11 06:38:39;;;;;;;0.83;0.83;;;16.10;50.40;16.60;99328.00;;;;5464810;26;20626;-59
2024/04/11 06:41:13;;;;;;;1.20;1.10;;;16.20;50.30;16.60;99331.00;;;;5464784;26;20279;-59
2024/04/11 06:43:40;;;;;;;0.80;0.80;;;16.20;50.30;16.60;99334.00;;;;5451012;26;20234;-58
2024/04/11 06:46:10;;;;;;;0.70;0.70;;;16.20;50.20;16.70;99326.00;;;;5450576;26;20344;-58
2024/04/11 06:48:36;;;;;;;0.80;0.80;;;16.30;50.20;16.70;99327.00;;;;5449200;26;20265;-58
2024/04/11 06:51:06;;;;;;;0.80;0.80;;;16.30;50.20;16.70;99330.00;;;;5462744;26;20298;-58
2024/04/11 06:53:32;;;;;;;0.80;0.80;;;16.30;50.80;16.70;99330.00;;;;5450574;26;20231;-59
2024/04/11 06:56:07;;;;;;;0.80;0.80;;;16.30;50.10;16.80;99335.00;;;;5465678;26;20302;-59
2024/04/11 06:58:34;;;;;;;0.80;0.80;;;16.40;50.10;16.80;99334.00;;;;5449300;26;20640;-59
2024/04/11 07:01:04;;;;;;;0.80;0.80;;;16.40;50.10;16.80;99324.00;;;;5449876;26;20280;-59
2024/04/11 07:03:30;;;;;;;0.80;0.80;;;16.40;50.00;16.80;99331.00;;;;5465020;26;20588;-59
2024/04/11 07:06:09;;;;;;;0.90;0.90;;;16.40;49.80;16.80;99328.00;;;;5478638;26;20350;-59
2024/04/11 07:08:38;;;;;;;0.77;0.77;;;16.50;49.90;16.90;99333.00;;;;5449171;26;20305;-59
2024/04/11 07:11:18;;;;;;;0.80;0.80;;;16.50;49.80;16.90;99332.00;;;;5450719;26;20245;-59
2024/04/11 07:13:45;;;;;;;0.80;0.80;;;16.50;49.70;16.90;99334.00;;;;5453560;26;20273;-59
2024/04/11 07:16:16;;;;;;;0.80;0.80;;;16.50;49.70;16.90;99327.00;;;;5453498;26;20650;-59
2024/04/11 07:18:44;;;;;;;0.80;0.80;;;16.60;49.60;16.90;99325.00;;;;5463740;26;20333;-59
2024/04/11 07:21:17;;;;;;;0.80;0.80;;;16.60;49.60;17.00;99326.00;;;;5464409;26;20281;-59
2024/04/11 07:23:44;;;;;;;0.80;0.80;;;16.60;49.50;17.00;99328.00;;;;5463827;26;20234;-59
2024/04/11 07:26:15;;;;;;;0.80;0.80;;;16.60;49.40;17.00;99327.00;;;;5469200;26;20241;-59
2024/04/11 07:28:45;;;;;;;1.00;0.90;;;16.60;49.30;17.00;99329.00;;;;5467653;26;20243;-59
2024/04/11 07:31:15;;;;;;;0.70;0.70;;;16.60;50.00;17.10;99332.00;;;;5468425;26;20652;-59
2024/04/11 07:33:42;;;;;;;0.67;0.67;;;16.70;49.30;17.10;99333.00;;;;5453493;26;20265;-59
2024/04/11 07:36:13;;;;;;;0.80;0.80;;;16.70;49.20;17.10;99331.00;;;;5464186;26;20242;-59
2024/04/11 07:38:40;;;;;;;0.77;0.77;;;16.80;49.20;17.10;99338.00;;;;5462179;26;20241;-59
2024/04/11 07:41:16;;;;;;;0.70;0.70;;;16.80;49.10;17.10;99331.00;;;;5473974;26;20345;-59
2024/04/11 07:43:47;;;;;;;1.03;0.90;;;16.80;49.00;17.10;99331.00;;;;5468269;26;20280;-59
2024/04/11 07:46:16;;;;;;;0.87;0.87;;;16.90;49.00;17.20;99341.00;;;;5471781;26;20342;-59
2024/04/11 07:48:47;;;;;;;0.80;0.80;;;16.90;49.00;17.20;99343.00;;;;5463353;26;20272;-59
2024/04/11 07:51:16;;;;;;;0.80;0.80;;;16.90;49.70;17.20;99337.00;;;;5485528;26;20344;-59
2024/04/11 07:53:46;;;;;;;0.80;0.80;;;16.90;48.90;17.20;99340.00;;;;5489493;26;20689;-59
2024/04/11 07:56:19;;;;;;;0.97;0.90;;;16.90;48.80;17.30;99342.00;;;;5469747;26;20238;-59
2024/04/11 07:58:49;;;;;;;1.07;0.97;;;16.90;48.70;17.30;99343.00;;;;5451934;26;20234;-59
2024/04/11 08:01:22;;;;;;;0.80;0.80;;;17.00;48.70;17.30;99342.00;;;;5467944;26;20297;-59
2024/04/11 08:03:49;;;;;;;0.70;0.70;;;17.00;48.70;17.30;99338.00;;;;5460660;26;20238;-59
2024/04/11 08:06:17;;;;;;;0.67;0.67;;;17.00;48.60;17.30;99340.00;;;;5453015;26;20663;-59
2024/04/11 08:08:45;;;;;;;0.93;0.80;;;17.00;48.50;17.30;99340.00;;;;5451967;26;20273;-59
2024/04/11 08:11:15;;;;;;;0.80;0.80;;;17.00;48.50;17.40;99339.00;;;;5472035;26;20280;-59
2024/04/11 08:13:43;;;;;;;0.90;0.90;;;17.10;48.60;17.40;99339.00;;;;5489166;26;20768;-59
2024/04/11 08:16:15;;;;;;;0.70;0.70;;;17.10;48.50;17.40;99345.00;;;;5489207;26;20275;-58
2024/04/11 08:18:41;;;;;;;0.73;0.73;;;17.10;48.50;17.40;99336.00;;;;5488199;26;20706;-58
2024/04/11 08:21:11;;;;;;;0.77;0.77;;;17.10;48.40;17.40;99343.00;;;;5471577;26;20242;-58
2024/04/11 08:23:39;;;;;;;0.77;0.77;;;17.10;48.40;17.40;99338.00;;;;5452496;26;20238;-58
2024/04/11 08:26:08;;;;;;;0.70;0.70;;;17.10;48.40;17.40;99337.00;;;;5454310;26;20230;-58
2024/04/11 08:28:37;;;;;;;0.70;0.70;;;17.10;48.30;17.40;99336.00;;;;5451598;26;20230;-59
2024/04/11 08:31:07;;;;;;;0.70;0.70;;;17.20;48.30;17.50;99345.00;;;;5452648;26;20242;-59
2024/04/11 08:33:37;;;;;;;0.70;0.70;;;17.10;48.30;17.50;99340.00;;;;5475452;26;20233;-59
2024/04/11 08:36:08;;;;;;;0.87;0.80;;;17.20;48.30;17.50;99335.00;;;;5472743;26;20246;-59
2024/04/11 08:38:34;;;;;;;0.80;0.80;;;17.10;48.20;17.50;99342.00;;;;5451816;26;20284;-59
2024/04/11 08:41:11;;;;;;;0.70;0.70;;;17.20;48.20;17.50;99346.00;;;;5453998;26;20804;-59
2024/04/11 08:43:39;;;;;;;0.80;0.80;;;17.20;48.20;17.50;99350.00;;;;5476177;26;20237;-59
2024/04/11 08:46:10;;;;;;;0.80;0.80;;;17.20;48.20;17.50;99351.00;;;;5488739;26;20237;-59
2024/04/11 08:48:40;;;;;;;0.60;0.60;;;17.20;48.20;17.50;99345.00;;;;5486703;26;20288;-59
2024/04/11 08:51:19;;;;;;;0.90;0.90;;;17.20;48.20;17.50;99351.00;;;;5488443;26;20241;-59
2024/04/11 08:53:46;;;;;;;0.80;0.80;;;17.20;48.10;17.50;99354.00;;;;5488638;26;20298;-62
2024/04/11 08:56:17;;;;;;;0.73;0.73;;;17.20;48.10;17.50;99351.00;;;;5470201;26;20235;-59
2024/04/11 08:58:45;;;;;;;0.67;0.67;;;17.20;48.10;17.50;99353.00;;;;5451381;26;20781;-59
2024/04/11 09:01:18;;;;;;;0.77;0.77;;;17.20;48.90;17.60;99350.00;;;;5452435;26;20273;-59
2024/04/11 09:03:48;;;;;;;0.80;0.80;;;17.20;48.10;17.60;99340.00;;;;5452293;26;20359;-59
2024/04/11 09:06:23;;;;;;;0.80;0.80;;;17.20;48.10;17.60;99344.00;;;;5487547;26;20993;-59
2024/04/11 09:08:50;;;;;;;0.70;0.70;;;17.20;48.10;17.60;99343.00;;;;5487898;26;20233;-59
2024/04/11 09:11:19;;;;;;;1.03;0.70;;;17.30;48.20;17.60;99345.00;;;;5469105;26;20331;-59
2024/04/11 09:13:45;;;;;;;0.90;0.90;;;17.30;48.20;17.60;99343.00;;;;5452126;26;20246;-59
2024/04/11 09:16:13;;;;;;;0.70;0.70;;;17.30;48.90;17.60;99338.00;;;;5451954;26;20234;-59
2024/04/11 09:18:39;;;;;;;0.83;0.70;;;17.20;48.20;17.50;99341.00;;;;5450887;26;20368;-59
2024/04/11 09:21:11;;;;;;;0.87;0.87;;;17.20;48.20;17.50;99340.00;;;;5470671;26;20256;-59
2024/04/11 09:23:46;;;;;;;0.90;0.90;;;17.20;48.40;17.50;99341.00;;;;5481203;26;20269;-59
2024/04/11 09:26:15;;;;;;;0.70;0.70;;;17.10;48.50;17.50;99333.00;;;;5470586;26;20607;-59
2024/04/11 09:28:42;;;;;;;0.80;0.80;;;17.10;48.60;17.40;99339.00;;;;5487155;26;20344;-59
2024/04/11 09:31:12;;;;;;;1.13;0.97;;;17.10;48.70;17.40;99339.00;;;;5457525;26;20586;-59
2024/04/11 09:33:39;;;;;;;0.97;0.97;;;17.00;48.60;17.40;99341.00;;;;5458048;26;20234;-59
2024/04/11 09:36:15;;;;;;;0.60;0.60;;;17.00;48.70;17.40;99335.00;;;;5451942;26;20238;-59
2024/04/11 09:38:46;;;;;;;1.20;0.83;;;17.00;48.80;17.40;99349.00;;;;5473598;26;20276;-59
2024/04/11 09:41:17;;;;;;;0.60;0.60;;;17.00;48.90;17.40;99341.00;;;;5469742;26;21212;-59
2024/04/11 09:43:45;;;;;;;0.70;0.70;;;17.00;48.90;17.30;99348.00;;;;5451522;26;20231;-59
2024/04/11 09:46:22;;;;;;;0.80;0.80;;;16.90;48.90;17.30;99338.00;;;;5451252;26;20298;-59
2024/04/11 09:48:51;;;;;;;0.80;0.80;;;16.90;49.00;17.30;99344.00;;;;5450792;26;20264;-59
2024/04/11 09:51:23;;;;;;;0.60;0.60;;;16.90;49.00;17.30;99343.00;;;;5451297;26;20304;-59
2024/04/11 09:53:51;;;;;;;0.83;0.60;;;16.90;49.10;17.30;99351.00;;;;5451711;26;20675;-59
2024/04/11 09:56:23;;;;;;;0.63;0.63;;;16.90;49.10;17.30;99342.00;;;;5454743;26;20238;-59
2024/04/11 09:58:51;;;;;;;0.77;0.77;;;16.90;49.10;17.30;99344.00;;;;5450499;26;20230;-59
2024/04/11 10:01:35;;;;;;;0.97;0.80;;;16.90;49.20;17.30;99340.00;;;;5451171;26;20584;-59
2024/04/11 10:04:04;;;;;;;0.70;0.70;;;16.90;49.20;17.30;99338.00;;;;5451415;26;20237;-59
2024/04/11 10:06:41;;;;;;;1.00;0.67;;;16.90;49.20;17.30;99339.00;;;;5477427;26;20333;-59
2024/04/11 10:09:12;;;;;;;0.73;0.73;;;16.90;49.20;17.30;99336.00;;;;5486514;26;20245;-59
2024/04/11 10:11:47;;;;;;;0.70;0.70;;;16.90;49.20;17.30;99335.00;;;;5463900;26;20284;-59
2024/04/11 10:14:17;;;;;;;0.73;0.73;;;16.90;49.20;17.30;99351.00;;;;5450941;26;20770;-59
2024/04/11 10:16:55;;;;;;;0.70;0.70;;;16.90;49.20;17.30;99343.00;;;;5451348;26;20246;-59
2024/04/11 10:19:26;;;;;;;1.00;0.90;;;16.90;49.20;17.30;99337.00;;;;5453813;26;20238;-59
2024/04/11 10:22:06;;;;;;;0.80;0.80;;;16.90;49.20;17.30;99343.00;;;;5461282;26;20236;-59
2024/04/11 10:24:34;;;;;;;1.00;0.83;;;16.90;49.20;17.30;99338.00;;;;5452634;26;20234;-59
2024/04/11 10:27:18;;;;;;;0.70;0.70;;;16.90;49.20;17.30;99340.00;;;;5454689;26;20342;-59
2024/04/11 10:29:46;;;;;;;0.70;0.70;;;16.90;49.20;17.30;99338.00;;;;5458002;26;20232;-59
2024/04/11 10:32:18;;;;;;;0.70;0.70;;;16.90;49.20;17.30;99339.00;;;;5487043;26;20236;-59
2024/04/11 10:34:48;;;;;;;0.70;0.70;;;16.90;49.10;17.30;99334.00;;;;5485610;26;20277;-59
2024/04/11 10:37:25;;;;;;;0.87;0.80;;;16.90;49.10;17.40;99334.00;;;;5456746;26;20289;-59
2024/04/11 10:39:54;;;;;;;0.60;0.60;;;17.00;49.00;17.40;99330.00;;;;5449884;26;20280;-59
2024/04/11 10:42:36;;;;;;;0.70;0.70;;;17.00;48.90;17.40;99330.00;;;;5486376;26;20272;-59
2024/04/11 10:45:07;;;;;;;0.77;0.77;;;17.00;48.90;17.40;99333.00;;;;5487553;26;20229;-59
2024/04/11 10:47:38;;;;;;;0.60;0.60;;;17.00;48.80;17.40;99329.00;;;;5489740;26;20304;-59
2024/04/11 10:50:09;;;;;;;0.60;0.60;;;17.00;48.80;17.40;99329.00;;;;5475790;26;20281;-59
2024/04/11 10:52:45;;;;;;;0.67;0.67;;;17.00;48.70;17.40;99325.00;;;;5453794;26;20238;-59
2024/04/11 10:55:22;;;;;;;0.63;0.63;;;17.10;49.50;17.40;99318.00;;;;5456746;26;20246;-59
2024/04/11 10:58:08;;;;;;;0.77;0.77;;;17.10;48.80;17.40;99320.00;;;;5461699;26;20335;-59
2024/04/11 11:03:40;;;;;;;0.70;0.70;;;17.00;48.70;17.40;99328.00;;;;5489500;26;20287;-59
2024/04/11 11:06:12;;;;;;;0.60;0.60;;;17.00;48.70;17.40;99329.00;;;;5460570;26;20585;-59
2024/04/11 11:08:45;;;;;;;0.70;0.70;;;17.10;48.80;17.50;99324.00;;;;5452716;26;20230;-59